sensor_id;sensor_type;location;lat;lon;timestamp;pressure;altitude;pressure_sealevel;temperature;humidity
13581;BME280;6861;46.170;7.222;2022-07-23T00:01:21;96062.78;;;30.67;28.58
13581;BME280;6861;46.170;7.222;2022-07-23T00:03:48;96063.56;;;30.60;28.46
13581;BME280;6861;46.170;7.222;2022-07-23T00:06:15;96072.06;;;30.59;28.47
13581;BME280;6861;46.170;7.222;2022-07-23T00:08:42;96061.25;;;30.55;28.36
13581;BME280;6861;46.170;7.222;2022-07-23T00:11:11;96048.16;;;30.50;28.38
13581;BME280;6861;46.170;7.222;2022-07-23T00:13:38;96037.38;;;30.43;28.46
13581;BME280;6861;46.170;7.222;2022-07-23T00:16:06;96023.53;;;30.34;28.61
13581;BME280;6861;46.170;7.222;2022-07-23T00:18:33;96019.31;;;30.33;28.43
13581;BME280;6861;46.170;7.222;2022-07-23T00:21:00;96010.06;;;30.30;28.23
13581;BME280;6861;46.170;7.222;2022-07-23T00:23:27;96011.63;;;30.24;28.43
13581;BME280;6861;46.170;7.222;2022-07-23T00:25:56;96000.47;;;30.19;28.54
13581;BME280;6861;46.170;7.222;2022-07-23T00:28:25;95995.06;;;30.15;28.53
13581;BME280;6861;46.170;7.222;2022-07-23T00:30:52;96002.00;;;30.13;28.67
13581;BME280;6861;46.170;7.222;2022-07-23T00:33:19;95979.66;;;30.12;28.61
13581;BME280;6861;46.170;7.222;2022-07-23T00:35:46;95975.03;;;30.13;28.56
13581;BME280;6861;46.170;7.222;2022-07-23T00:38:13;95967.31;;;30.15;28.71
13581;BME280;6861;46.170;7.222;2022-07-23T00:40:40;95986.22;;;30.11;28.41
13581;BME280;6861;46.170;7.222;2022-07-23T00:43:07;95963.88;;;30.07;28.21
13581;BME280;6861;46.170;7.222;2022-07-23T00:45:36;95961.19;;;30.04;28.27
13581;BME280;6861;46.170;7.222;2022-07-23T00:48:03;95961.19;;;30.04;28.56
13581;BME280;6861;46.170;7.222;2022-07-23T00:50:30;95960.03;;;30.01;28.64
13581;BME280;6861;46.170;7.222;2022-07-23T00:52:57;95961.16;;;29.96;28.43
13581;BME280;6861;46.170;7.222;2022-07-23T00:55:25;95948.06;;;29.91;28.49
13581;BME280;6861;46.170;7.222;2022-07-23T00:57:53;95942.69;;;29.88;28.65
13581;BME280;6861;46.170;7.222;2022-07-23T01:00:20;95949.63;;;29.85;28.76
13581;BME280;6861;46.170;7.222;2022-07-23T01:02:49;95941.91;;;29.87;29.04
13581;BME280;6861;46.170;7.222;2022-07-23T01:05:16;95959.66;;;29.88;28.92
13581;BME280;6861;46.170;7.222;2022-07-23T01:07:47;95954.63;;;29.90;29.04
13581;BME280;6861;46.170;7.222;2022-07-23T01:10:15;95959.25;;;29.93;29.14
13581;BME280;6861;46.170;7.222;2022-07-23T01:13:02;95970.41;;;29.95;30.03
13581;BME280;6861;46.170;7.222;2022-07-23T01:15:30;95976.19;;;29.97;30.51
13581;BME280;6861;46.170;7.222;2022-07-23T01:17:59;95976.97;;;29.94;30.77
13581;BME280;6861;46.170;7.222;2022-07-23T01:20:26;95997.03;;;30.00;30.95
13581;BME280;6861;46.170;7.222;2022-07-23T01:22:55;96002.44;;;30.00;30.64
13581;BME280;6861;46.170;7.222;2022-07-23T01:25:22;96012.81;;;29.98;30.74
13581;BME280;6861;46.170;7.222;2022-07-23T01:27:51;96026.31;;;29.98;31.07
13581;BME280;6861;46.170;7.222;2022-07-23T01:30:18;96031.31;;;29.96;31.15
13581;BME280;6861;46.170;7.222;2022-07-23T01:32:46;96035.19;;;29.95;31.43
13581;BME280;6861;46.170;7.222;2022-07-23T01:35:13;96030.19;;;29.94;31.63
13581;BME280;6861;46.170;7.222;2022-07-23T01:37:40;96027.09;;;29.92;31.70
13581;BME280;6861;46.170;7.222;2022-07-23T01:40:09;96030.19;;;29.87;31.65
13581;BME280;6861;46.170;7.222;2022-07-23T01:42:36;96035.59;;;29.80;31.77
13581;BME280;6861;46.170;7.222;2022-07-23T01:45:04;96057.56;;;29.78;31.89
13581;BME280;6861;46.170;7.222;2022-07-23T01:47:32;96069.13;;;29.75;32.17
13581;BME280;6861;46.170;7.222;2022-07-23T01:49:59;96086.09;;;29.72;32.21
13581;BME280;6861;46.170;7.222;2022-07-23T01:52:25;96092.25;;;29.62;32.22
13581;BME280;6861;46.170;7.222;2022-07-23T01:54:52;96095.31;;;29.50;32.41
13581;BME280;6861;46.170;7.222;2022-07-23T01:57:21;96111.91;;;29.45;32.06
13581;BME280;6861;46.170;7.222;2022-07-23T01:59:48;96120.00;;;29.45;32.28
13581;BME280;6861;46.170;7.222;2022-07-23T02:02:15;96139.63;;;29.45;32.46
13581;BME280;6861;46.170;7.222;2022-07-23T02:04:42;96149.28;;;29.46;32.73
13581;BME280;6861;46.170;7.222;2022-07-23T02:07:09;96151.56;;;29.48;33.09
13581;BME280;6861;46.170;7.222;2022-07-23T02:09:35;96150.00;;;29.47;33.12
13581;BME280;6861;46.170;7.222;2022-07-23T02:12:03;96154.66;;;29.43;33.06
13581;BME280;6861;46.170;7.222;2022-07-23T02:14:32;96166.97;;;29.44;33.17
13581;BME280;6861;46.170;7.222;2022-07-23T02:16:59;96169.69;;;29.44;33.19
13581;BME280;6861;46.170;7.222;2022-07-23T02:19:25;96187.78;;;29.43;33.37
13581;BME280;6861;46.170;7.222;2022-07-23T02:21:52;96203.19;;;29.43;33.05
13581;BME280;6861;46.170;7.222;2022-07-23T02:24:20;96202.41;;;29.42;33.45
13581;BME280;6861;46.170;7.222;2022-07-23T02:26:47;96227.03;;;29.41;33.78
13581;BME280;6861;46.170;7.222;2022-07-23T02:29:14;96228.19;;;29.40;34.30
13581;BME280;6861;46.170;7.222;2022-07-23T02:31:42;96220.47;;;29.38;34.55
13581;BME280;6861;46.170;7.222;2022-07-23T02:34:09;96245.13;;;29.36;35.30
13581;BME280;6861;46.170;7.222;2022-07-23T02:36:37;96242.44;;;29.36;35.93
13581;BME280;6861;46.170;7.222;2022-07-23T02:39:05;96257.84;;;29.36;36.09
13581;BME280;6861;46.170;7.222;2022-07-23T02:41:32;96278.22;;;29.33;36.95
13581;BME280;6861;46.170;7.222;2022-07-23T02:43:58;96283.59;;;29.30;37.30
13581;BME280;6861;46.170;7.222;2022-07-23T02:46:25;96278.59;;;29.28;37.55
13581;BME280;6861;46.170;7.222;2022-07-23T02:48:54;96212.72;;;29.22;37.88
13581;BME280;6861;46.170;7.222;2022-07-23T02:51:21;96157.59;;;29.09;37.99
13581;BME280;6861;46.170;7.222;2022-07-23T02:53:47;96151.34;;;28.84;38.49
13581;BME280;6861;46.170;7.222;2022-07-23T02:56:14;96168.16;;;28.59;38.12
13581;BME280;6861;46.170;7.222;2022-07-23T02:58:41;96180.00;;;28.51;38.83
13581;BME280;6861;46.170;7.222;2022-07-23T03:01:08;96198.41;;;28.42;39.40
13581;BME280;6861;46.170;7.222;2022-07-23T03:03:35;96210.13;;;28.20;39.37
13581;BME280;6861;46.170;7.222;2022-07-23T03:06:04;96225.34;;;28.01;40.28
13581;BME280;6861;46.170;7.222;2022-07-23T03:08:31;96203.00;;;27.94;39.56
13581;BME280;6861;46.170;7.222;2022-07-23T03:10:58;96189.50;;;27.90;38.91
13581;BME280;6861;46.170;7.222;2022-07-23T03:13:26;96173.00;;;27.92;38.65
13581;BME280;6861;46.170;7.222;2022-07-23T03:15:52;96159.94;;;27.90;38.52
13581;BME280;6861;46.170;7.222;2022-07-23T03:18:19;96177.94;;;27.86;38.17
13581;BME280;6861;46.170;7.222;2022-07-23T03:20:46;96200.53;;;27.78;38.88
13581;BME280;6861;46.170;7.222;2022-07-23T03:23:16;96198.22;;;27.73;38.94
13581;BME280;6861;46.170;7.222;2022-07-23T03:25:43;96195.88;;;27.68;39.73
13581;BME280;6861;46.170;7.222;2022-07-23T03:28:09;96204.25;;;27.63;40.07
13581;BME280;6861;46.170;7.222;2022-07-23T03:30:36;96184.19;;;27.57;40.04
13581;BME280;6861;46.170;7.222;2022-07-23T03:33:03;96170.75;;;27.57;40.15
13581;BME280;6861;46.170;7.222;2022-07-23T03:35:30;96160.00;;;27.57;39.96
13581;BME280;6861;46.170;7.222;2022-07-23T03:37:57;96150.03;;;27.57;40.86
13581;BME280;6861;46.170;7.222;2022-07-23T03:40:26;96148.44;;;27.53;40.90
13581;BME280;6861;46.170;7.222;2022-07-23T03:42:52;96147.16;;;27.39;41.20
13581;BME280;6861;46.170;7.222;2022-07-23T03:45:20;96150.91;;;27.31;41.69
13581;BME280;6861;46.170;7.222;2022-07-23T03:47:46;96166.97;;;27.24;42.31
13581;BME280;6861;46.170;7.222;2022-07-23T03:50:13;96152.31;;;27.18;41.99
13581;BME280;6861;46.170;7.222;2022-07-23T03:52:40;96146.53;;;27.16;42.66
13581;BME280;6861;46.170;7.222;2022-07-23T03:55:08;96155.34;;;27.17;42.69
13581;BME280;6861;46.170;7.222;2022-07-23T03:57:36;96149.97;;;27.17;43.13
13581;BME280;6861;46.170;7.222;2022-07-23T04:00:05;96149.53;;;27.11;43.75
13581;BME280;6861;46.170;7.222;2022-07-23T04:02:34;96152.97;;;27.08;43.67
13581;BME280;6861;46.170;7.222;2022-07-23T04:05:01;96158.34;;;27.08;44.44
13581;BME280;6861;46.170;7.222;2022-07-23T04:07:28;96165.16;;;27.02;44.26
13581;BME280;6861;46.170;7.222;2022-07-23T04:09:55;96163.91;;;26.96;44.28
13581;BME280;6861;46.170;7.222;2022-07-23T04:12:22;96169.59;;;26.91;44.73
13581;BME280;6861;46.170;7.222;2022-07-23T04:14:51;96168.72;;;26.80;44.83
13581;BME280;6861;46.170;7.222;2022-07-23T04:17:18;96177.09;;;26.74;45.23
13581;BME280;6861;46.170;7.222;2022-07-23T04:19:45;96181.59;;;26.67;44.89
13581;BME280;6861;46.170;7.222;2022-07-23T04:22:12;96181.53;;;26.63;45.27
13581;BME280;6861;46.170;7.222;2022-07-23T04:24:39;96183.81;;;26.61;45.08
13581;BME280;6861;46.170;7.222;2022-07-23T04:27:06;96181.50;;;26.60;45.43
13581;BME280;6861;46.170;7.222;2022-07-23T04:29:33;96183.09;;;26.64;45.19
13581;BME280;6861;46.170;7.222;2022-07-23T04:32:02;96166.25;;;26.67;44.76
13581;BME280;6861;46.170;7.222;2022-07-23T04:34:29;96180.09;;;26.69;45.13
13581;BME280;6861;46.170;7.222;2022-07-23T04:36:56;96173.22;;;26.72;45.37
13581;BME280;6861;46.170;7.222;2022-07-23T04:39:23;96174.81;;;26.76;44.75
13581;BME280;6861;46.170;7.222;2022-07-23T04:41:49;96156.47;;;26.82;45.02
13581;BME280;6861;46.170;7.222;2022-07-23T04:44:16;96141.13;;;26.83;44.90
13581;BME280;6861;46.170;7.222;2022-07-23T04:46:43;96136.56;;;26.87;44.65
13581;BME280;6861;46.170;7.222;2022-07-23T04:49:12;96148.84;;;26.84;44.69
13581;BME280;6861;46.170;7.222;2022-07-23T04:51:39;96149.56;;;26.81;45.13
13581;BME280;6861;46.170;7.222;2022-07-23T04:54:06;96141.13;;;26.83;44.98
13581;BME280;6861;46.170;7.222;2022-07-23T04:56:33;96141.88;;;26.80;45.30
13581;BME280;6861;46.170;7.222;2022-07-23T04:59:00;96138.72;;;26.74;45.51
13581;BME280;6861;46.170;7.222;2022-07-23T05:01:26;96143.31;;;26.73;45.64
13581;BME280;6861;46.170;7.222;2022-07-23T05:03:53;96137.97;;;26.73;45.58
13581;BME280;6861;46.170;7.222;2022-07-23T05:06:22;96131.91;;;26.80;44.75
13581;BME280;6861;46.170;7.222;2022-07-23T05:08:49;96131.16;;;26.83;45.11
13581;BME280;6861;46.170;7.222;2022-07-23T05:11:16;96118.94;;;26.86;44.40
13581;BME280;6861;46.170;7.222;2022-07-23T05:13:43;96118.16;;;26.89;44.53
13581;BME280;6861;46.170;7.222;2022-07-23T05:16:10;96126.63;;;26.91;44.40
13581;BME280;6861;46.170;7.222;2022-07-23T05:18:37;96137.91;;;27.00;44.63
13581;BME280;6861;46.170;7.222;2022-07-23T05:21:04;96153.69;;;27.05;44.52
13581;BME280;6861;46.170;7.222;2022-07-23T05:23:33;96156.06;;;27.10;45.21
13581;BME280;6861;46.170;7.222;2022-07-23T05:26:00;96147.66;;;27.15;45.23
13581;BME280;6861;46.170;7.222;2022-07-23T05:28:27;96141.56;;;27.18;45.00
13581;BME280;6861;46.170;7.222;2022-07-23T05:30:54;96140.41;;;27.19;44.96
13581;BME280;6861;46.170;7.222;2022-07-23T05:33:21;96143.91;;;27.23;44.98
13581;BME280;6861;46.170;7.222;2022-07-23T05:35:48;96158.50;;;27.22;45.30
13581;BME280;6861;46.170;7.222;2022-07-23T05:38:15;96166.97;;;27.24;45.53
13581;BME280;6861;46.170;7.222;2022-07-23T05:40:43;96166.88;;;27.17;45.25
13581;BME280;6861;46.170;7.222;2022-07-23T05:43:10;96169.97;;;27.19;45.72
13581;BME280;6861;46.170;7.222;2022-07-23T05:45:37;96177.63;;;27.17;45.58
13581;BME280;6861;46.170;7.222;2022-07-23T05:48:04;96172.56;;;27.12;45.65
13581;BME280;6861;46.170;7.222;2022-07-23T05:50:32;96177.13;;;27.08;45.39
13581;BME280;6861;46.170;7.222;2022-07-23T05:52:59;96161.34;;;27.03;45.90
13581;BME280;6861;46.170;7.222;2022-07-23T05:55:26;96162.13;;;27.03;45.51
13581;BME280;6861;46.170;7.222;2022-07-23T05:57:56;96160.59;;;27.06;45.96
13581;BME280;6861;46.170;7.222;2022-07-23T06:00:23;96162.94;;;27.07;46.29
13581;BME280;6861;46.170;7.222;2022-07-23T06:02:50;96159.88;;;27.09;46.53
13581;BME280;6861;46.170;7.222;2022-07-23T06:05:17;96166.88;;;27.17;45.79
13581;BME280;6861;46.170;7.222;2022-07-23T06:07:44;96165.81;;;27.25;46.38
13581;BME280;6861;46.170;7.222;2022-07-23T06:10:11;96162.47;;;27.35;45.77
13581;BME280;6861;46.170;7.222;2022-07-23T06:12:38;96168.41;;;27.52;45.82
13581;BME280;6861;46.170;7.222;2022-07-23T06:15:09;96170.53;;;27.69;45.92
13581;BME280;6861;46.170;7.222;2022-07-23T06:17:36;96170.25;;;27.85;45.22
13581;BME280;6861;46.170;7.222;2022-07-23T06:20:05;96178.44;;;27.99;45.14
13581;BME280;6861;46.170;7.222;2022-07-23T06:22:32;96185.47;;;28.11;44.19
13581;BME280;6861;46.170;7.222;2022-07-23T06:24:59;96185.53;;;28.18;44.02
13581;BME280;6861;46.170;7.222;2022-07-23T06:27:26;96180.53;;;28.20;43.89
13581;BME280;6861;46.170;7.222;2022-07-23T06:29:53;96181.69;;;28.19;44.04
13581;BME280;6861;46.170;7.222;2022-07-23T06:32:22;96180.47;;;28.13;43.63
13581;BME280;6861;46.170;7.222;2022-07-23T06:34:49;96194.31;;;28.11;43.76
13581;BME280;6861;46.170;7.222;2022-07-23T06:37:16;96195.78;;;28.05;43.69
13581;BME280;6861;46.170;7.222;2022-07-23T06:39:42;96193.06;;;28.01;44.54
13581;BME280;6861;46.170;7.222;2022-07-23T06:42:09;96197.69;;;28.01;44.44
13581;BME280;6861;46.170;7.222;2022-07-23T06:44:37;96198.81;;;28.00;44.07
13581;BME280;6861;46.170;7.222;2022-07-23T06:47:04;96204.56;;;27.98;44.21
13581;BME280;6861;46.170;7.222;2022-07-23T06:49:33;96211.50;;;27.99;44.25
13581;BME280;6861;46.170;7.222;2022-07-23T06:52:00;96204.56;;;27.98;44.58
13581;BME280;6861;46.170;7.222;2022-07-23T06:54:27;96199.19;;;27.98;44.46
13581;BME280;6861;46.170;7.222;2022-07-23T06:56:54;96196.91;;;28.00;44.65
13581;BME280;6861;46.170;7.222;2022-07-23T06:59:21;96196.16;;;28.03;44.60
13581;BME280;6861;46.170;7.222;2022-07-23T07:01:47;96201.97;;;28.09;45.26
13581;BME280;6861;46.170;7.222;2022-07-23T07:04:14;96208.59;;;28.19;44.80
13581;BME280;6861;46.170;7.222;2022-07-23T07:06:43;96204.88;;;28.30;44.92
13581;BME280;6861;46.170;7.222;2022-07-23T07:09:10;96202.66;;;28.43;45.25
13581;BME280;6861;46.170;7.222;2022-07-23T07:11:37;96205.44;;;28.57;45.59
13581;BME280;6861;46.170;7.222;2022-07-23T07:14:04;96203.59;;;28.76;44.75
13581;BME280;6861;46.170;7.222;2022-07-23T07:16:32;96194.50;;;28.94;44.63
13581;BME280;6861;46.170;7.222;2022-07-23T07:18:59;96199.22;;;29.15;44.68
13581;BME280;6861;46.170;7.222;2022-07-23T07:21:26;96188.50;;;29.36;44.21
13581;BME280;6861;46.170;7.222;2022-07-23T07:23:54;96198.59;;;29.61;43.71
13581;BME280;6861;46.170;7.222;2022-07-23T07:26:21;96200.94;;;29.77;42.79
13581;BME280;6861;46.170;7.222;2022-07-23T07:28:48;96187.44;;;29.87;42.21
13581;BME280;6861;46.170;7.222;2022-07-23T07:31:15;96193.63;;;29.98;41.96
13581;BME280;6861;46.170;7.222;2022-07-23T07:33:42;96195.97;;;30.11;41.87
13581;BME280;6861;46.170;7.222;2022-07-23T07:36:09;96188.66;;;30.22;41.39
13581;BME280;6861;46.170;7.222;2022-07-23T07:38:36;96190.16;;;30.33;40.85
13581;BME280;6861;46.170;7.222;2022-07-23T07:41:04;96185.13;;;30.46;40.89
13581;BME280;6861;46.170;7.222;2022-07-23T07:43:33;96179.34;;;30.58;40.66
13581;BME280;6861;46.170;7.222;2022-07-23T07:46:00;96188.59;;;30.72;40.96
13581;BME280;6861;46.170;7.222;2022-07-23T07:48:27;96184.69;;;30.83;40.37
13581;BME280;6861;46.170;7.222;2022-07-23T07:50:54;96184.66;;;30.94;40.36
13581;BME280;6861;46.170;7.222;2022-07-23T07:53:20;96182.31;;;31.07;40.31
13581;BME280;6861;46.170;7.222;2022-07-23T07:55:47;96183.06;;;31.18;40.63
13581;BME280;6861;46.170;7.222;2022-07-23T07:58:16;96184.94;;;31.24;40.16
13581;BME280;6861;46.170;7.222;2022-07-23T08:00:43;96175.22;;;31.34;39.79
13581;BME280;6861;46.170;7.222;2022-07-23T08:03:10;96187.56;;;31.42;40.06
13581;BME280;6861;46.170;7.222;2022-07-23T08:05:37;96183.63;;;31.50;39.30
13581;BME280;6861;46.170;7.222;2022-07-23T08:08:04;96181.28;;;31.56;39.56
13581;BME280;6861;46.170;7.222;2022-07-23T08:10:31;96182.06;;;31.56;39.07
13581;BME280;6861;46.170;7.222;2022-07-23T08:12:59;96183.25;;;31.52;38.88
13581;BME280;6861;46.170;7.222;2022-07-23T08:15:29;96178.25;;;31.47;39.09
13581;BME280;6861;46.170;7.222;2022-07-23T08:17:56;96176.34;;;31.40;38.73
13581;BME280;6861;46.170;7.222;2022-07-23T08:20:24;96175.22;;;31.34;38.52
13581;BME280;6861;46.170;7.222;2022-07-23T08:22:53;96172.56;;;31.27;38.61
13581;BME280;6861;46.170;7.222;2022-07-23T08:25:22;96180.69;;;31.23;39.16
13581;BME280;6861;46.170;7.222;2022-07-23T08:27:50;96168.31;;;31.22;39.07
13581;BME280;6861;46.170;7.222;2022-07-23T08:30:17;96167.56;;;31.22;39.25
13581;BME280;6861;46.170;7.222;2022-07-23T08:32:55;96169.09;;;31.23;39.52
13581;BME280;6861;46.170;7.222;2022-07-23T08:35:24;96160.59;;;31.24;39.48
13581;BME280;6861;46.170;7.222;2022-07-23T08:37:51;96162.50;;;31.27;39.92
13581;BME280;6861;46.170;7.222;2022-07-23T08:40:18;96155.91;;;31.36;40.01
13581;BME280;6861;46.170;7.222;2022-07-23T08:42:48;96148.91;;;31.42;39.88
13581;BME280;6861;46.170;7.222;2022-07-23T08:45:17;96154.25;;;31.52;39.33
13581;BME280;6861;46.170;7.222;2022-07-23T08:47:48;96148.03;;;31.59;38.79
13581;BME280;6861;46.170;7.222;2022-07-23T08:50:17;96151.84;;;31.65;38.71
13581;BME280;6861;46.170;7.222;2022-07-23T08:52:45;96149.94;;;31.69;38.16
13581;BME280;6861;46.170;7.222;2022-07-23T08:55:13;96143.72;;;31.72;37.75
13581;BME280;6861;46.170;7.222;2022-07-23T08:57:41;96140.25;;;31.72;38.26
13581;BME280;6861;46.170;7.222;2022-07-23T09:00:09;96147.22;;;31.66;37.76
13581;BME280;6861;46.170;7.222;2022-07-23T09:02:40;96142.25;;;31.57;37.83
13581;BME280;6861;46.170;7.222;2022-07-23T09:05:08;96139.59;;;31.50;38.05
13581;BME280;6861;46.170;7.222;2022-07-23T09:08:02;96140.41;;;31.43;38.38
13581;BME280;6861;46.170;7.222;2022-07-23T09:10:25;96136.56;;;31.37;38.85
13581;BME280;6861;46.170;7.222;2022-07-23T09:12:52;96135.84;;;31.29;38.62
13581;BME280;6861;46.170;7.222;2022-07-23T09:15:19;96132.00;;;31.23;38.60
13581;BME280;6861;46.170;7.222;2022-07-23T09:17:46;96128.16;;;31.21;38.84
13581;BME280;6861;46.170;7.222;2022-07-23T09:20:16;96124.34;;;31.18;38.60
13581;BME280;6861;46.170;7.222;2022-07-23T09:22:46;96120.88;;;31.18;38.24
13581;BME280;6861;46.170;7.222;2022-07-23T09:25:16;96121.25;;;31.20;38.41
13581;BME280;6861;46.170;7.222;2022-07-23T09:27:46;96109.22;;;31.24;38.70
13581;BME280;6861;46.170;7.222;2022-07-23T09:30:15;96106.47;;;31.32;39.20
13581;BME280;6861;46.170;7.222;2022-07-23T09:32:43;96110.28;;;31.41;39.41
13581;BME280;6861;46.170;7.222;2022-07-23T09:35:10;96107.13;;;31.50;39.48
13581;BME280;6861;46.170;7.222;2022-07-23T09:37:37;96099.72;;;31.61;39.54
13581;BME280;6861;46.170;7.222;2022-07-23T09:40:08;96098.88;;;31.71;38.58
13581;BME280;6861;46.170;7.222;2022-07-23T09:42:37;96095.75;;;31.76;38.59
13581;BME280;6861;46.170;7.222;2022-07-23T09:45:10;96090.66;;;31.85;38.79
13581;BME280;6861;46.170;7.222;2022-07-23T09:47:37;96087.53;;;31.90;38.23
13581;BME280;6861;46.170;7.222;2022-07-23T09:50:06;96084.41;;;31.92;38.49
13581;BME280;6861;46.170;7.222;2022-07-23T09:52:42;96089.75;;;31.99;38.95
13581;BME280;6861;46.170;7.222;2022-07-23T09:55:11;96084.31;;;32.03;38.22
13581;BME280;6861;46.170;7.222;2022-07-23T09:57:40;96079.59;;;32.07;38.99
13581;BME280;6861;46.170;7.222;2022-07-23T10:00:10;96081.88;;;32.12;38.67
13581;BME280;6861;46.170;7.222;2022-07-23T10:02:38;96079.09;;;32.19;38.93
13581;BME280;6861;46.170;7.222;2022-07-23T10:05:06;96079.47;;;32.24;38.50
13581;BME280;6861;46.170;7.222;2022-07-23T10:07:35;96070.91;;;32.30;38.24
13581;BME280;6861;46.170;7.222;2022-07-23T10:10:04;96068.50;;;32.35;37.50
13581;BME280;6861;46.170;7.222;2022-07-23T10:12:33;96071.94;;;32.39;37.51
13581;BME280;6861;46.170;7.222;2022-07-23T10:15:14;96073.91;;;32.39;37.29
13581;BME280;6861;46.170;7.222;2022-07-23T10:17:42;96072.34;;;32.38;36.73
13581;BME280;6861;46.170;7.222;2022-07-23T10:20:09;96066.16;;;32.37;37.54
13581;BME280;6861;46.170;7.222;2022-07-23T10:22:38;96070.41;;;32.38;37.64
13581;BME280;6861;46.170;7.222;2022-07-23T10:25:14;96062.28;;;32.38;37.82
13581;BME280;6861;46.170;7.222;2022-07-23T10:28:20;96056.06;;;32.41;37.98
13581;BME280;6861;46.170;7.222;2022-07-23T10:31:01;96060.31;;;32.42;37.69
13581;BME280;6861;46.170;7.222;2022-07-23T10:33:41;96056.44;;;32.43;37.35
13581;BME280;6861;46.170;7.222;2022-07-23T10:36:18;96049.09;;;32.40;37.44
13581;BME280;6861;46.170;7.222;2022-07-23T10:38:52;96054.44;;;32.47;37.74
13581;BME280;6861;46.170;7.222;2022-07-23T10:41:39;96046.69;;;32.49;37.42
13581;BME280;6861;46.170;7.222;2022-07-23T10:44:09;96038.56;;;32.49;38.02
13581;BME280;6861;46.170;7.222;2022-07-23T10:46:53;96046.22;;;32.54;37.53
13581;BME280;6861;46.170;7.222;2022-07-23T10:49:28;96035.75;;;32.56;37.60
13581;BME280;6861;46.170;7.222;2022-07-23T10:52:17;96035.81;;;32.53;37.44
13581;BME280;6861;46.170;7.222;2022-07-23T10:54:46;96027.31;;;32.51;37.45
13581;BME280;6861;46.170;7.222;2022-07-23T10:57:14;96034.66;;;32.50;37.28
13581;BME280;6861;46.170;7.222;2022-07-23T11:00:25;96021.94;;;32.47;37.61
13581;BME280;6861;46.170;7.222;2022-07-23T11:02:55;96025.47;;;32.44;37.66
13581;BME280;6861;46.170;7.222;2022-07-23T11:05:25;96017.38;;;32.41;37.62
13581;BME280;6861;46.170;7.222;2022-07-23T11:08:15;96023.19;;;32.39;37.31
13581;BME280;6861;46.170;7.222;2022-07-23T11:10:45;96012.00;;;32.37;37.22
13581;BME280;6861;46.170;7.222;2022-07-23T11:13:36;96015.91;;;32.33;37.10
13581;BME280;6861;46.170;7.222;2022-07-23T11:16:20;96008.59;;;32.30;36.76
13581;BME280;6861;46.170;7.222;2022-07-23T11:19:06;96002.81;;;32.28;37.46
13581;BME280;6861;46.170;7.222;2022-07-23T11:21:44;96008.66;;;32.26;36.90
13581;BME280;6861;46.170;7.222;2022-07-23T11:24:13;96009.81;;;32.25;37.09
13581;BME280;6861;46.170;7.222;2022-07-23T11:26:44;96000.94;;;32.24;37.22
13581;BME280;6861;46.170;7.222;2022-07-23T11:29:40;95997.44;;;32.24;37.30
13581;BME280;6861;46.170;7.222;2022-07-23T11:32:22;95991.25;;;32.23;37.01
13581;BME280;6861;46.170;7.222;2022-07-23T11:34:50;95991.25;;;32.23;37.17
13581;BME280;6861;46.170;7.222;2022-07-23T11:37:36;95983.91;;;32.20;36.53
13581;BME280;6861;46.170;7.222;2022-07-23T11:40:06;95978.53;;;32.17;37.24
13581;BME280;6861;46.170;7.222;2022-07-23T11:42:36;95986.25;;;32.18;36.70
13581;BME280;6861;46.170;7.222;2022-07-23T11:45:05;95978.13;;;32.18;37.06
13581;BME280;6861;46.170;7.222;2022-07-23T11:47:33;95981.25;;;32.17;36.62
13581;BME280;6861;46.170;7.222;2022-07-23T11:50:03;95975.03;;;32.20;36.88
13581;BME280;6861;46.170;7.222;2022-07-23T11:52:32;95966.91;;;32.20;37.16
13581;BME280;6861;46.170;7.222;2022-07-23T11:55:00;95961.09;;;32.21;37.39
13581;BME280;6861;46.170;7.222;2022-07-23T11:57:29;95967.25;;;32.22;37.12
13581;BME280;6861;46.170;7.222;2022-07-23T12:00:03;95967.25;;;32.22;37.33
13581;BME280;6861;46.170;7.222;2022-07-23T12:02:33;95968.06;;;32.22;37.39
13581;BME280;6861;46.170;7.222;2022-07-23T12:05:00;95958.00;;;32.23;36.76
13581;BME280;6861;46.170;7.222;2022-07-23T12:07:31;95954.91;;;32.21;37.24
13581;BME280;6861;46.170;7.222;2022-07-23T12:10:00;95950.66;;;32.20;37.15
13581;BME280;6861;46.170;7.222;2022-07-23T12:12:35;95944.06;;;32.21;36.99
13581;BME280;6861;46.170;7.222;2022-07-23T12:15:03;95946.41;;;32.22;37.49
13581;BME280;6861;46.170;7.222;2022-07-23T12:17:34;95954.13;;;32.24;37.13
13581;BME280;6861;46.170;7.222;2022-07-23T12:20:03;95942.47;;;32.27;37.63
13581;BME280;6861;46.170;7.222;2022-07-23T12:22:37;95935.47;;;32.30;37.61
13581;BME280;6861;46.170;7.222;2022-07-23T12:25:08;95938.94;;;32.30;37.38
13581;BME280;6861;46.170;7.222;2022-07-23T12:27:35;95944.72;;;32.32;37.17
13581;BME280;6861;46.170;7.222;2022-07-23T12:30:19;95934.66;;;32.33;37.47
13581;BME280;6861;46.170;7.222;2022-07-23T12:32:49;95936.97;;;32.34;37.38
13581;BME280;6861;46.170;7.222;2022-07-23T12:35:16;95926.19;;;32.31;37.23
13581;BME280;6861;46.170;7.222;2022-07-23T12:37:45;95936.97;;;32.34;36.93
13581;BME280;6861;46.170;7.222;2022-07-23T12:40:26;95938.50;;;32.35;37.51
13581;BME280;6861;46.170;7.222;2022-07-23T12:42:57;95940.03;;;32.36;36.96
13581;BME280;6861;46.170;7.222;2022-07-23T12:45:26;95926.13;;;32.34;37.14
13581;BME280;6861;46.170;7.222;2022-07-23T12:48:05;95927.63;;;32.39;37.28
13581;BME280;6861;46.170;7.222;2022-07-23T12:50:41;95926.91;;;32.35;36.83
13581;BME280;6861;46.170;7.222;2022-07-23T12:53:11;95919.53;;;32.35;36.70
13581;BME280;6861;46.170;7.222;2022-07-23T12:55:39;95918.38;;;32.36;37.27
13581;BME280;6861;46.170;7.222;2022-07-23T12:58:10;95926.09;;;32.38;37.42
13581;BME280;6861;46.170;7.222;2022-07-23T13:01:04;95922.59;;;32.37;36.99
13581;BME280;6861;46.170;7.222;2022-07-23T13:03:36;95917.19;;;32.37;37.16
13581;BME280;6861;46.170;7.222;2022-07-23T13:06:05;95919.91;;;32.37;36.94
13581;BME280;6861;46.170;7.222;2022-07-23T13:08:34;95928.03;;;32.37;37.24
13581;BME280;6861;46.170;7.222;2022-07-23T13:11:02;95923.78;;;32.36;36.55
13581;BME280;6861;46.170;7.222;2022-07-23T13:13:31;95915.28;;;32.34;37.15
13581;BME280;6861;46.170;7.222;2022-07-23T13:15:59;95907.19;;;32.34;37.00
13581;BME280;6861;46.170;7.222;2022-07-23T13:18:27;95908.34;;;32.33;37.04
13581;BME280;6861;46.170;7.222;2022-07-23T13:20:55;95903.69;;;32.34;36.66